Uvalde Research's Hourly Summary for Sunday, July 8, 2018
Hour Temp
(f)
RH
(%)
Solar Rad.
(MJ/m2)
Rainfall
(in)
Wind
(mph)
7/8/2018 12:00 AM 73 96 0 0 0.57
7/8/2018 1:00 AM 73 96 0 0 1.15
7/8/2018 2:00 AM 72 97 0 0 0.91
7/8/2018 3:00 AM 72 97 0 0 1.26
7/8/2018 4:00 AM 72 97 0 0 0.61
7/8/2018 5:00 AM 71 98 0 0 0.27
7/8/2018 6:00 AM 71 99 0.01 0 0.24
7/8/2018 7:00 AM 72 99 0.14 0 0.74
7/8/2018 8:00 AM 73 98 0.39 0 0.94
7/8/2018 9:00 AM 74 96 0.44 0 1.14
7/8/2018 10:00 AM 76 92 0.68 0 1.06
7/8/2018 11:00 AM 80 81 1.61 0 1.88
7/8/2018 12:00 PM 83 69 1.92 0 1.59
7/8/2018 1:00 PM 86 60 1.94 0 2.03
7/8/2018 2:00 PM 87 57 2.31 0 3.06
7/8/2018 3:00 PM 89 46 2.77 0 3.38
7/8/2018 4:00 PM 90 44 1.63 0 2.87
7/8/2018 5:00 PM 90 47 1.19 0 3.34
7/8/2018 6:00 PM 89 49 0.87 0 3.98
7/8/2018 7:00 PM 85 62 0.29 0 4.61
7/8/2018 8:00 PM 83 66 0.05 0 3.29
7/8/2018 9:00 PM 81 71 0 0 1.98
7/8/2018 10:00 PM 79 76 0 0 1.29
7/8/2018 11:00 PM 77 82 0 0 1.59
Data Summary 79 78 16.24 0.00 1.82